This is the latest recevied weather packets stored in our database for station/object ZL2ARL. If no packets are shown the sender has not sent any weather packets the latest 10 day(s).
| Time | Temp. | Humidity | Pressure | Rain* | Wind** | Luminosity | Snow |
|---|---|---|---|---|---|---|---|
| 1777609830 | 11.67° C | 68% | 1035.7 hPa | 0 mm | - | 73 W/m² | - |
| 1777605617 | 13.89° C | 63% | 1035.9 hPa | 0 mm | - | 210 W/m² | - |
| 1777605031 | 15° C | 61% | 1036 hPa | 0 mm | - | 233 W/m² | - |
| 1777600816 | 13.89° C | 61% | 1036.4 hPa | 0 mm | - | 377 W/m² | - |
| 1777599627 | 14.44° C | 61% | 1036.7 hPa | 0 mm | - | 409 W/m² | - |
| 1777595432 | 13.89° C | 60% | 1037.7 hPa | 0 mm | - | 472 W/m² | - |
| 1777591823 | 12.78° C | 66% | 1038.6 hPa | 0 mm | - | 455 W/m² | - |
| 1777585833 | 8.89° C | 79% | 1039.1 hPa | 0 mm | - | 257 W/m² | - |
| 1777585228 | 8.33° C | 81% | 1039.3 hPa | 0 mm | - | 197 W/m² | - |
| 1777584018 | 7.78° C | 82% | 1039.5 hPa | 0 mm | - | 198 W/m² | - |
| 1777582223 | 7.22° C | 84% | 1039.4 hPa | 0 mm | - | 147 W/m² | - |
| 1777578655 | 5° C | 89% | 1038.9 hPa | 0 mm | - | 29 W/m² | - |
| 1777578030 | 4.44° C | 89% | 1038.9 hPa | 0 mm | - | 23 W/m² | - |
| 1777574421 | 4.44° C | 88% | 1039 hPa | 0 mm | - | 0 W/m² | - |
| 1777570225 | 5° C | 95% | 1039.2 hPa | 0 mm | - | 0 W/m² | - |
| 1777563045 | 2.22° C | 96% | 1039.4 hPa | 0 mm | - | 0 W/m² | - |
| 1777561230 | 2.78° C | 96% | 1039.6 hPa | 0 mm | - | 0 W/m² | - |
| 1777560020 | 2.78° C | 96% | 1039.8 hPa | 0 mm | - | 0 W/m² | - |
| 1777556430 | 2.78° C | 95% | 1040.1 hPa | 0 mm | - | 0 W/m² | - |
| 1777553425 | 2.78° C | 94% | 1040.3 hPa | 0 mm | - | 0 W/m² | - |
| 1777546225 | 3.89° C | 92% | 1040.3 hPa | 0 mm | - | 0 W/m² | - |
| 1777545640 | 3.89° C | 92% | 1040.2 hPa | 0 mm | - | 0 W/m² | - |
| 1777540840 | 4.44° C | 90% | 1039.8 hPa | 0 mm | - | 0 W/m² | - |
| 1777532430 | 7.22° C | 78% | 1039.4 hPa | 0 mm | - | 0 W/m² | - |
| 1777530635 | 8.33° C | 76% | 1039.2 hPa | 0 mm | - | 0 W/m² | - |
* Rain latest hour (hover to see other rain measurements)
** Current wind speed in m/s (hover to see current wind gust speed)